»·PEaware :: C-GMMA KMCC-KOAK

C-GMMA :: KMCC-KOAK

FLIGHT INFORMATION

Flight Status: Arrived
Operator: Privately registered:
Canada
More flights under this callsign
Pilot: Mathieu B. (72)
Aircraft: CESSNA P210 PRESSURIZED CENTURION
(P210)
More flights by this aircraft type
Origin: KMCC McClellan
United States
Destination: KOAK Metro Oakland Intl
United States
More flights between these airports :: More routes between these airports
Route: SAC V6 OAK
File this flight plan on PilotEdge
Remarks: WILL PUT IMC 800' CEILING
Altitude:
(Current/Filed)
6,000ft
Speed:
(Current/Filed)
175kts
Departed: 12-Aug-12 11:11 AM
Arrived: 12-Aug-12 11:47 AM
Distance/Time
Traveled:
69nm/0:36
Distance/Time
To Go:
Arrived

Flight Plot

Page will automatically refresh every two minutes.


Map Options




Map Legend


Flown Route
Filed Route
Departure Airport
Arrival Airport
Navaid (VOR, NDB)
Fix

Horizontal Profiles

Position Reports

Time Latitude Longitude Heading Altitude Ground
Speed
12-Aug-12 10:56 38.653370 -121.402634 180 71ft 0kts
12-Aug-12 10:57 38.653370 -121.402634 180 71ft 0kts
12-Aug-12 10:58 38.653370 -121.402634 180 71ft 0kts
12-Aug-12 10:59 38.653370 -121.402634 180 71ft 0kts
12-Aug-12 11:00 38.653370 -121.402634 180 71ft 0kts
12-Aug-12 11:01 38.653370 -121.402634 180 71ft 0kts
12-Aug-12 11:02 38.653370 -121.402634 180 71ft 0kts
12-Aug-12 11:03 38.653370 -121.402634 180 71ft 0kts
12-Aug-12 11:04 38.653370 -121.402634 180 71ft 0kts
12-Aug-12 11:05 38.653370 -121.402634 180 71ft 0kts
12-Aug-12 11:06 38.653370 -121.402634 180 71ft 0kts
12-Aug-12 11:08 38.653274 -121.402579 125 71ft 0kts
12-Aug-12 11:09 38.653781 -121.400598 356 68ft 0kts
12-Aug-12 11:10 38.670344 -121.400268 354 361ft 107kts
12-Aug-12 11:10 38.680360 -121.419559 218 1386ft 104kts
12-Aug-12 11:11 38.652499 -121.419649 198 2485ft 121kts
12-Aug-12 11:12 38.619623 -121.442275 202 3729ft 138kts
12-Aug-12 11:13 38.584830 -121.460375 203 5194ft 136kts
12-Aug-12 11:14 38.549433 -121.485983 210 5941ft 154kts
12-Aug-12 11:15 38.509064 -121.509369 201 5984ft 163kts
12-Aug-12 11:16 38.469420 -121.540019 210 5957ft 170kts
12-Aug-12 11:17 38.426738 -121.566459 201 5934ft 171kts
12-Aug-12 11:18 38.384853 -121.595837 209 5957ft 169kts
12-Aug-12 11:19 38.344909 -121.626836 211 5913ft 173kts
12-Aug-12 11:20 38.302982 -121.655911 206 5953ft 170kts
12-Aug-12 11:21 38.265854 -121.693309 218 5977ft 170kts
12-Aug-12 11:22 38.226900 -121.726577 206 6028ft 169kts
12-Aug-12 11:23 38.183868 -121.753210 207 5895ft 177kts
12-Aug-12 11:24 38.145203 -121.789092 221 5931ft 175kts
12-Aug-12 11:25 38.109678 -121.829045 212 6008ft 171kts
12-Aug-12 11:26 38.071358 -121.864528 213 6038ft 172kts
12-Aug-12 11:27 38.034852 -121.905038 219 6031ft 172kts
12-Aug-12 11:28 37.997630 -121.943773 219 6030ft 172kts
12-Aug-12 11:29 37.960478 -121.982288 219 6028ft 170kts
12-Aug-12 11:30 37.925307 -122.018632 219 6028ft 157kts
12-Aug-12 11:31 37.889079 -122.042212 170 6032ft 151kts
12-Aug-12 11:32 37.847510 -122.043799 194 6029ft 149kts
12-Aug-12 11:33 37.824869 -122.086686 223 5817ft 161kts
12-Aug-12 11:34 37.780656 -122.077506 145 4518ft 186kts
12-Aug-12 11:35 37.740461 -122.040747 142 3898ft 162kts
12-Aug-12 11:36 37.705393 -122.010851 145 3832ft 139kts
12-Aug-12 11:37 37.672143 -121.982484 147 3938ft 138kts
12-Aug-12 11:38 37.637713 -122.004058 214 3477ft 166kts
12-Aug-12 11:39 37.605455 -122.046414 267 2451ft 184kts
12-Aug-12 11:40 37.619103 -122.091645 298 2469ft 107kts
12-Aug-12 11:41 37.639988 -122.121876 295 1992ft 117kts
12-Aug-12 11:43 37.661229 -122.155359 315 1227ft 118kts
12-Aug-12 11:43 37.679655 -122.180519 314 696ft 123kts
12-Aug-12 11:45 37.703114 -122.216742 309 4ft 98kts
12-Aug-12 11:45 37.710893 -122.226298 351 -2ft 0kts
12-Aug-12 11:46 37.711246 -122.226231 20 -2ft 10kts
12-Aug-12 11:47 37.712818 -122.222462 40 0ft 15kts
12-Aug-12 11:48 37.714746 -122.219001 306 0ft 0kts

Navigation Log

Ident Type
Flight plan parsing failed, navigation log unavailable